This is the latest recevied weather packets stored in our database for station/object IW2DGQ-3. If no packets are shown the sender has not sent any weather packets the latest 10 day(s).
| Time | Temp. | Humidity | Pressure | Rain* | Wind** | Luminosity | Snow |
|---|---|---|---|---|---|---|---|
| 1777938510 | 15.56° C | 46% | 1015.4 hPa | - | - | - | - |
| 1777709530 | 33.89° C | 23% | 1027.1 hPa | - | - | - | - |
| 1777708326 | 34.44° C | 24% | 1027.2 hPa | - | - | - | - |
| 1777707123 | 33.33° C | 24% | 1027.2 hPa | - | - | - | - |
| 1777705919 | 33.89° C | 24% | 1027.2 hPa | - | - | - | - |
| 1777704716 | 34.44° C | 25% | 1027.2 hPa | - | - | - | - |
| 1777703512 | 33.33° C | 26% | 1027.4 hPa | - | - | - | - |
| 1777702309 | 31.67° C | 27% | 1027.3 hPa | - | - | - | - |
| 1777701105 | 29.44° C | 30% | 1027.3 hPa | - | - | - | - |
| 1777699902 | 27.78° C | 33% | 1027.4 hPa | - | - | - | - |
| 1777698698 | 22.22° C | 43% | 1027.3 hPa | - | - | - | - |
| 1777696291 | 8.33° C | 52% | 1027.2 hPa | - | - | - | - |
| 1777695087 | 8.33° C | 52% | 1027.2 hPa | - | - | - | - |
| 1777693884 | 7.78° C | 51% | 1027.2 hPa | - | - | - | - |
| 1777692681 | 7.78° C | 51% | 1027.1 hPa | - | - | - | - |
| 1777691477 | 8.33° C | 50% | 1027.2 hPa | - | - | - | - |
| 1777690274 | 8.33° C | 50% | 1027.3 hPa | - | - | - | - |
| 1777689070 | 8.33° C | 50% | 1027.3 hPa | - | - | - | - |
| 1777687866 | 8.33° C | 49% | 1027.4 hPa | - | - | - | - |
| 1777686663 | 8.89° C | 49% | 1027.3 hPa | - | - | - | - |
| 1777685460 | 8.89° C | 48% | 1027.4 hPa | - | - | - | - |
| 1777684256 | 8.89° C | 47% | 1027.4 hPa | - | - | - | - |
| 1777683052 | 8.89° C | 46% | 1027.4 hPa | - | - | - | - |
| 1777681849 | 9.44° C | 45% | 1027.4 hPa | - | - | - | - |
| 1777680645 | 10° C | 43% | 1027.5 hPa | - | - | - | - |
* Rain since midnight (hover to see other rain measurements)
** Current wind speed in m/s (hover to see current wind gust speed)